Time;durP1;ratioP1;P1;durP2;ratioP2;P2;SDS_P1;SDS_P2;PMS_P1;PMS_P2;Temp;Humidity;BMP_temperature;BMP_pressure;BME280_temperature;BME280_humidity;BME280_pressure;Samples;Min_cycle;Max_cycle;Signal;HPM_P1;HPM_P2
2023/01/25 00:00:30;;;;;;;73.22;31.75;;;;;;;0.90;94.12;103576.09;5018700;28;20113;-90
2023/01/25 00:02:56;;;;;;;77.07;34.17;;;;;;;0.90;93.99;103571.63;5018330;28;20120;-90
2023/01/25 00:05:21;;;;;;;76.20;33.15;;;;;;;0.87;93.69;103561.97;5018461;28;20049;-90
2023/01/25 00:07:47;;;;;;;76.45;34.30;;;;;;;0.88;93.89;103565.50;5036063;28;20462;-90
2023/01/25 00:10:22;;;;;;;77.80;33.90;;;;;;;0.85;93.33;103563.84;5018473;28;20363;-90
2023/01/25 00:12:47;;;;;;;73.78;32.67;;;;;;;0.86;93.73;103565.56;5018713;28;20061;-90
2023/01/25 00:15:16;;;;;;;73.70;33.13;;;;;;;0.85;94.11;103561.16;5018162;28;20063;-90
2023/01/25 00:17:43;;;;;;;80.38;33.70;;;;;;;0.87;94.20;103564.63;5017679;28;20057;-90
2023/01/25 00:20:20;;;;;;;78.27;33.73;;;;;;;0.88;93.50;103562.81;5036356;28;20080;-90
2023/01/25 00:22:53;;;;;;;80.03;34.65;;;;;;;0.90;93.37;103562.72;5035927;28;20061;-90
2023/01/25 00:25:23;;;;;;;74.78;33.97;;;;;;;0.85;93.65;103552.28;5019121;28;20116;-90
2023/01/25 00:27:48;;;;;;;76.65;33.33;;;;;;;0.88;94.37;103561.00;5001638;28;20087;-90
2023/01/25 00:30:14;;;;;;;76.17;34.03;;;;;;;0.86;94.21;103554.88;5017715;28;20037;-90
2023/01/25 00:32:47;;;;;;;80.82;36.15;;;;;;;0.85;93.75;103553.16;5017171;28;20037;-90
2023/01/25 00:35:22;;;;;;;87.18;36.05;;;;;;;0.87;94.11;103563.75;5035513;28;20029;-90
2023/01/25 00:37:51;;;;;;;78.38;34.50;;;;;;;0.82;93.76;103561.34;4987184;28;20133;-90
2023/01/25 00:40:20;;;;;;;77.63;34.33;;;;;;;0.81;94.18;103554.28;5017920;28;20444;-90
2023/01/25 00:42:46;;;;;;;80.43;36.10;;;;;;;0.84;93.98;103550.56;5017794;28;20042;-90
2023/01/25 00:45:19;;;;;;;81.27;35.10;;;;;;;0.79;93.92;103550.81;5035402;28;20539;-90
2023/01/25 00:47:46;;;;;;;75.90;33.45;;;;;;;0.75;94.32;103543.91;5017927;28;20065;-89
2023/01/25 00:50:22;;;;;;;79.28;34.88;;;;;;;0.78;94.40;103549.09;5017352;28;20080;-89
2023/01/25 00:52:48;;;;;;;79.40;34.17;;;;;;;0.75;94.76;103546.59;5017917;28;20099;-89
2023/01/25 00:55:23;;;;;;;76.73;33.33;;;;;;;0.77;94.61;103552.72;5017698;28;20060;-89
2023/01/25 00:57:51;;;;;;;87.13;36.20;;;;;;;0.77;93.81;103555.41;5017861;28;20489;-89
2023/01/25 01:00:17;;;;;;;91.07;37.73;;;;;;;0.73;93.80;103545.81;5034772;28;20033;-89
2023/01/25 01:02:45;;;;;;;85.78;36.38;;;;;;;0.72;93.96;103540.56;5017385;28;20282;-89
2023/01/25 01:05:10;;;;;;;81.13;35.13;;;;;;;0.74;94.08;103544.00;5001505;28;20036;-89
2023/01/25 01:07:36;;;;;;;82.40;35.37;;;;;;;0.76;94.48;103542.97;5017109;28;20116;-90
2023/01/25 01:10:04;;;;;;;79.43;34.65;;;;;;;0.80;94.42;103539.19;5017246;28;20030;-89
2023/01/25 01:12:37;;;;;;;83.93;35.83;;;;;;;0.80;94.47;103539.19;5017969;28;20037;-89
2023/01/25 01:15:20;;;;;;;87.20;36.57;;;;;;;0.80;94.11;103533.00;5001122;28;20025;-89
2023/01/25 01:17:53;;;;;;;84.25;34.97;;;;;;;0.75;94.14;103541.25;5017159;28;20057;-89
2023/01/25 01:20:19;;;;;;;86.03;37.10;;;;;;;0.72;93.66;103537.88;5017194;28;20037;-89
2023/01/25 01:22:44;;;;;;;88.83;36.80;;;;;;;0.69;94.33;103542.47;5016989;28;20446;-89
2023/01/25 01:25:12;;;;;;;82.97;36.50;;;;;;;0.72;94.32;103540.56;5016901;28;20037;-89
2023/01/25 01:27:37;;;;;;;89.40;37.00;;;;;;;0.71;94.50;103537.03;5034812;28;20064;-89
2023/01/25 01:30:04;;;;;;;85.38;37.30;;;;;;;0.72;94.83;103532.53;5035249;28;20129;-88
2023/01/25 01:32:35;;;;;;;85.68;37.67;;;;;;;0.75;94.94;103540.38;5000859;28;20029;-89
2023/01/25 01:35:00;;;;;;;86.70;36.93;;;;;;;0.69;94.53;103536.22;5001801;28;20096;-89
2023/01/25 01:37:29;;;;;;;86.47;36.67;;;;;;;0.67;94.73;103528.31;5016612;28;20276;-89
2023/01/25 01:40:00;;;;;;;84.88;36.58;;;;;;;0.69;94.50;103538.91;5017384;28;20083;-89
2023/01/25 01:42:28;;;;;;;84.17;37.23;;;;;;;0.72;94.67;103541.41;5034862;28;20043;-89
2023/01/25 01:44:56;;;;;;;85.30;37.53;;;;;;;0.70;94.67;103529.94;5017401;28;20024;-89
2023/01/25 01:47:28;;;;;;;86.47;37.10;;;;;;;0.72;94.98;103536.06;5019988;28;20037;-90
2023/01/25 01:50:03;;;;;;;89.13;35.55;;;;;;;0.74;94.91;103536.84;5028824;28;20025;-88
2023/01/25 01:52:40;;;;;;;81.85;35.80;;;;;;;0.75;94.57;103529.69;5022026;28;20040;-89
2023/01/25 01:55:23;;;;;;;81.30;34.93;;;;;;;0.77;94.68;103538.47;5035743;28;20036;-89
2023/01/25 01:57:58;;;;;;;85.80;36.53;;;;;;;0.79;94.83;103534.78;5037610;28;20109;-89
2023/01/25 02:00:41;;;;;;;84.25;36.33;;;;;;;0.81;94.38;103534.69;5000974;28;20041;-89
2023/01/25 02:03:08;;;;;;;84.68;35.78;;;;;;;0.81;94.13;103540.03;5016692;28;20529;-89
2023/01/25 02:06:00;;;;;;;85.25;35.40;;;;;;;0.82;94.09;103542.63;5034099;28;20087;-89
2023/01/25 02:08:35;;;;;;;82.03;34.47;;;;;;;0.80;94.42;103533.84;5033563;28;20021;-89
2023/01/25 02:11:06;;;;;;;84.03;35.42;;;;;;;0.81;94.53;103545.38;5016101;28;20469;-88
2023/01/25 02:13:46;;;;;;;85.30;36.97;;;;;;;0.78;94.49;103529.53;5033627;28;20523;-89
2023/01/25 02:16:32;;;;;;;84.05;36.35;;;;;;;0.80;94.34;103527.66;5015828;28;20042;-89
2023/01/25 02:19:13;;;;;;;86.63;35.42;;;;;;;0.79;94.33;103534.78;5016092;28;20053;-89
2023/01/25 02:21:48;;;;;;;85.93;37.63;;;;;;;0.77;94.59;103534.00;5001792;28;20123;-89
2023/01/25 02:24:21;;;;;;;85.18;35.30;;;;;;;0.77;94.25;103530.47;5000420;28;20030;-88
2023/01/25 02:26:56;;;;;;;92.40;37.97;;;;;;;0.77;94.43;103528.66;5016089;28;20484;-89
2023/01/25 02:29:24;;;;;;;86.32;35.95;;;;;;;0.73;94.46;103518.25;5016350;28;20029;-89
2023/01/25 02:32:08;;;;;;;88.47;36.53;;;;;;;0.71;94.13;103518.31;5016456;28;20037;-89
2023/01/25 02:34:44;;;;;;;91.23;38.00;;;;;;;0.67;94.10;103512.28;5001215;28;20025;-89
2023/01/25 02:37:14;;;;;;;91.57;38.05;;;;;;;0.67;94.36;103508.75;4993709;28;20030;-89
2023/01/25 02:39:41;;;;;;;89.07;38.30;;;;;;;0.65;94.20;103511.50;5028030;28;20057;-89
2023/01/25 02:42:12;;;;;;;90.38;36.88;;;;;;;0.68;94.21;103511.34;5006223;28;20087;-89
2023/01/25 02:44:43;;;;;;;93.10;38.42;;;;;;;0.64;94.39;103511.59;5016942;28;20030;-89
2023/01/25 02:47:19;;;;;;;95.50;39.20;;;;;;;0.59;94.11;103503.84;5034092;28;20474;-90
2023/01/25 02:49:49;;;;;;;94.30;38.83;;;;;;;0.58;94.58;103495.91;5016334;28;20473;-89
2023/01/25 02:52:25;;;;;;;91.60;37.67;;;;;;;0.52;94.69;103497.94;5000905;28;20124;-89
2023/01/25 02:54:53;;;;;;;95.68;39.47;;;;;;;0.56;94.99;103509.34;5015378;28;20044;-89
2023/01/25 02:57:23;;;;;;;93.65;37.38;;;;;;;0.52;94.93;103505.97;5015738;28;20068;-89
2023/01/25 02:59:59;;;;;;;92.70;37.23;;;;;;;0.55;94.54;103501.38;5034039;28;20458;-89
2023/01/25 03:02:28;;;;;;;93.55;38.17;;;;;;;0.57;94.91;103499.50;4999652;28;20043;-88
2023/01/25 03:04:53;;;;;;;97.53;41.05;;;;;;;0.54;94.95;103489.84;5015851;28;20083;-89
2023/01/25 03:07:22;;;;;;;100.20;39.93;;;;;;;0.54;94.95;103497.00;4998974;28;20045;-88
2023/01/25 03:09:50;;;;;;;102.28;40.50;;;;;;;0.47;94.19;103501.81;5015750;28;20112;-89
2023/01/25 03:12:23;;;;;;;96.20;38.78;;;;;;;0.43;94.36;103498.47;5015503;28;20124;-89
2023/01/25 03:14:53;;;;;;;97.22;39.28;;;;;;;0.38;94.94;103495.16;5036669;28;20033;-88
2023/01/25 03:17:25;;;;;;;97.05;38.55;;;;;;;0.37;95.21;103493.47;5020006;28;20446;-89
2023/01/25 03:19:52;;;;;;;93.93;37.53;;;;;;;0.36;95.68;103483.72;5017181;28;20053;-88
2023/01/25 03:22:28;;;;;;;95.05;39.00;;;;;;;0.37;94.79;103487.22;5019974;28;20566;-89
2023/01/25 03:25:01;;;;;;;98.68;39.85;;;;;;;0.36;95.42;103482.84;5019934;28;20458;-88
2023/01/25 03:27:36;;;;;;;94.32;38.78;;;;;;;0.31;95.03;103489.31;5020422;28;20087;-89
2023/01/25 03:30:09;;;;;;;90.00;38.40;;;;;;;0.28;95.79;103472.56;5051635;28;20057;-89
2023/01/25 03:32:37;;;;;;;95.20;37.80;;;;;;;0.31;96.12;103475.06;5011807;28;20064;-89
2023/01/25 03:35:03;;;;;;;98.55;39.72;;;;;;;0.31;95.81;103461.72;5025396;28;20029;-90
2023/01/25 03:38:06;;;;;;;97.15;39.85;;;;;;;0.33;95.45;103454.50;5018093;28;20037;-89
2023/01/25 03:40:34;;;;;;;95.00;37.28;;;;;;;0.32;94.90;103455.44;5018919;28;20188;-89
2023/01/25 03:42:59;;;;;;;92.47;38.50;;;;;;;0.27;95.86;103452.16;5019070;28;20033;-89
2023/01/25 03:45:27;;;;;;;96.90;38.83;;;;;;;0.30;95.94;103458.19;5019086;28;20389;-89
2023/01/25 03:48:00;;;;;;;98.38;39.03;;;;;;;0.36;95.96;103459.66;5019128;28;20037;-89
2023/01/25 03:50:31;;;;;;;98.88;39.25;;;;;;;0.38;96.12;103454.25;5019116;28;20116;-88
2023/01/25 03:53:26;;;;;;;94.87;38.63;;;;;;;0.44;96.25;103461.91;5020154;28;20033;-89
2023/01/25 03:55:53;;;;;;;103.85;40.20;;;;;;;0.35;96.10;103460.59;5005026;28;20107;-88
2023/01/25 03:58:35;;;;;;;94.43;40.47;;;;;;;0.28;96.32;103459.22;5037285;28;20025;-88
2023/01/25 04:01:01;;;;;;;94.93;37.42;;;;;;;0.32;96.43;103463.44;5036028;28;20022;-88
2023/01/25 04:03:35;;;;;;;90.90;37.15;;;;;;;0.36;95.99;103474.84;5018278;28;20448;-88
2023/01/25 04:06:04;;;;;;;91.60;36.40;;;;;;;0.35;96.07;103455.25;5018523;28;20029;-88
2023/01/25 04:08:36;;;;;;;94.30;38.88;;;;;;;0.40;95.93;103463.91;5017918;28;20121;-89
2023/01/25 04:11:15;;;;;;;96.60;38.50;;;;;;;0.42;95.91;103450.47;5018943;28;20071;-88
2023/01/25 04:13:53;;;;;;;;;;;;;;;;;;;;;
2023/01/25 04:16:24;;;;;;;97.47;38.38;;;;;;;0.40;95.48;103457.69;5037062;28;20033;-89
2023/01/25 04:18:50;;;;;;;96.07;38.60;;;;;;;0.41;95.73;103454.94;5018233;28;20508;-88
2023/01/25 04:21:15;;;;;;;96.13;39.00;;;;;;;0.41;95.35;103454.94;5018225;28;20045;-88
2023/01/25 04:23:46;;;;;;;95.60;36.63;;;;;;;0.39;95.59;103440.81;5034419;28;20096;-88
2023/01/25 04:26:13;;;;;;;97.45;38.22;;;;;;;0.42;95.20;103451.31;5018316;28;20026;-89
2023/01/25 04:28:41;;;;;;;97.20;38.03;;;;;;;0.40;94.70;103442.53;5035444;28;20057;-89
2023/01/25 04:31:20;;;;;;;90.60;36.90;;;;;;;0.38;94.90;103440.88;5018093;28;20033;-89
2023/01/25 04:33:55;;;;;;;91.82;36.58;;;;;;;0.35;94.36;103436.56;5018291;28;20276;-89
2023/01/25 04:36:23;;;;;;;103.35;40.50;;;;;;;0.25;94.05;103441.56;5003044;28;20079;-89
2023/01/25 04:38:51;;;;;;;94.57;36.13;;;;;;;0.22;94.28;103449.72;5035941;28;20071;-89
2023/01/25 04:41:27;;;;;;;88.80;36.53;;;;;;;0.20;94.22;103453.44;5018968;28;20125;-88
2023/01/25 04:43:59;;;;;;;91.97;36.08;;;;;;;0.20;94.24;103443.63;5002987;28;20033;-89
2023/01/25 04:46:24;;;;;;;92.05;36.72;;;;;;;0.15;94.43;103440.34;5018898;28;20034;-89
2023/01/25 04:48:54;;;;;;;89.30;36.25;;;;;;;0.10;94.29;103440.56;5017748;28;20469;-89
2023/01/25 04:51:20;;;;;;;89.23;36.30;;;;;;;0.08;94.47;103430.94;5038220;28;20095;-89
2023/01/25 04:53:58;;;;;;;88.20;35.75;;;;;;;0.05;94.61;103437.31;5019173;28;20279;-89
2023/01/25 04:56:26;;;;;;;89.65;35.47;;;;;;;0.05;94.71;103437.31;5019442;28;20059;-89
2023/01/25 04:58:57;;;;;;;91.43;36.27;;;;;;;0.04;95.02;103427.56;5020663;28;20045;-88
2023/01/25 05:01:32;;;;;;;89.32;35.90;;;;;;;0.07;95.00;103430.06;5021883;28;20032;-89
2023/01/25 05:04:03;;;;;;;92.00;35.78;;;;;;;0.06;94.67;103433.69;5024799;28;20049;-89
2023/01/25 05:06:33;;;;;;;89.87;35.97;;;;;;;0.04;94.66;103422.22;5025280;28;20037;-89
2023/01/25 05:09:00;;;;;;;92.30;36.05;;;;;;;-0.05;94.79;103422.72;5027370;28;20104;-89
2023/01/25 05:11:29;;;;;;;93.22;36.33;;;;;;;-0.13;94.29;103423.13;5026294;28;20026;-89
2023/01/25 05:14:09;;;;;;;87.72;36.38;;;;;;;-0.19;94.51;103413.66;5021341;28;20095;-89
2023/01/25 05:16:37;;;;;;;86.23;35.43;;;;;;;-0.22;94.99;103405.81;5017585;28;20037;-89
2023/01/25 05:19:09;;;;;;;92.28;34.97;;;;;;;-0.21;95.63;103412.88;5016232;28;20140;-89
2023/01/25 05:24:29;;;;;;;88.10;35.03;;;;;;;-0.31;95.64;103413.44;5035439;28;20091;-88
2023/01/25 05:27:06;;;;;;;89.82;35.17;;;;;;;-0.33;95.37;103410.84;5017758;28;20040;-89
2023/01/25 05:29:39;;;;;;;88.97;34.20;;;;;;;-0.32;95.82;103403.72;5017155;28;20045;-89
2023/01/25 05:32:33;;;;;;;88.70;34.00;;;;;;;-0.24;95.74;103422.84;5016089;28;20490;-88
2023/01/25 05:35:01;;;;;;;88.88;33.40;;;;;;;-0.29;95.92;103408.91;5018439;28;20038;-89
2023/01/25 05:37:35;;;;;;;88.50;35.45;;;;;;;-0.28;95.63;103400.81;5016140;28;20026;-89
2023/01/25 05:40:08;;;;;;;89.88;35.92;;;;;;;-0.30;95.36;103402.66;5017535;28;20037;-89
2023/01/25 05:42:39;;;;;;;91.07;36.33;;;;;;;-0.34;95.53;103403.78;5000014;28;20033;-89
2023/01/25 05:45:08;;;;;;;91.93;36.13;;;;;;;-0.41;96.19;103405.06;5034374;28;20029;-89
2023/01/25 05:47:36;;;;;;;92.25;35.95;;;;;;;-0.52;96.20;103402.09;5016903;28;20025;-89
2023/01/25 05:50:07;;;;;;;89.75;36.03;;;;;;;-0.58;96.76;103403.25;5016341;28;20038;-88
2023/01/25 05:52:40;;;;;;;89.88;34.75;;;;;;;-0.67;97.27;103403.75;5034372;28;20039;-88
2023/01/25 05:55:14;;;;;;;91.67;35.33;;;;;;;-0.69;97.52;103408.28;5001754;28;20428;-88
2023/01/25 05:57:43;;;;;;;88.90;34.90;;;;;;;-0.73;97.59;103400.44;5016638;28;20139;-88
2023/01/25 06:00:20;;;;;;;90.05;34.50;;;;;;;-0.68;97.78;103410.00;5034636;28;20033;-89
2023/01/25 06:02:55;;;;;;;91.15;34.30;;;;;;;-0.61;97.57;103403.41;5033884;28;20096;-88
2023/01/25 06:05:30;;;;;;;89.18;34.95;;;;;;;-0.52;97.39;103399.41;5017257;28;20029;-89
2023/01/25 06:07:59;;;;;;;90.40;33.73;;;;;;;-0.55;97.44;103393.31;5016286;28;20029;-89
2023/01/25 06:10:46;;;;;;;88.70;33.47;;;;;;;-0.49;97.41;103399.25;4999834;28;20087;-89
2023/01/25 06:13:11;;;;;;;90.32;34.08;;;;;;;-0.45;97.72;103392.81;5017056;28;20458;-89
2023/01/25 06:15:53;;;;;;;82.90;31.70;;;;;;;-0.40;97.68;103396.09;5016715;28;20032;-89
2023/01/25 06:18:23;;;;;;;83.22;33.20;;;;;;;-0.34;96.99;103401.09;5016859;28;20370;-88
2023/01/25 06:20:49;;;;;;;84.88;33.88;;;;;;;-0.32;96.69;103401.06;5017247;28;20555;-89
2023/01/25 06:23:15;;;;;;;88.05;34.05;;;;;;;-0.32;97.12;103404.56;5022393;28;20034;-86
2023/01/25 06:25:42;;;;;;;89.80;35.43;;;;;;;-0.31;96.79;103395.63;5024598;28;20032;-90
2023/01/25 06:28:11;;;;;;;88.93;33.70;;;;;;;-0.35;96.38;103396.72;5035138;28;20039;-89
2023/01/25 06:30:37;;;;;;;83.38;32.92;;;;;;;-0.46;96.42;103402.63;5017892;28;20485;-94
2023/01/25 06:33:02;;;;;;;83.60;33.00;;;;;;;-0.49;97.10;103401.91;5016711;28;20033;-94
2023/01/25 06:35:30;;;;;;;79.80;32.90;;;;;;;-0.46;97.03;103401.75;5017316;28;20087;-94
2023/01/25 06:38:01;;;;;;;87.87;33.57;;;;;;;-0.46;97.07;103397.28;5017430;28;20127;-94
2023/01/25 06:40:27;;;;;;;82.82;32.50;;;;;;;-0.45;97.46;103401.69;5034021;28;20252;-86
2023/01/25 06:42:53;;;;;;;83.35;33.45;;;;;;;-0.48;97.47;103396.50;5016676;28;20075;-90
2023/01/25 06:45:22;;;;;;;80.88;32.20;;;;;;;-0.51;97.21;103398.50;5016009;28;20124;-91
2023/01/25 06:47:51;;;;;;;81.55;32.80;;;;;;;-0.54;96.77;103395.00;5017904;28;20470;-89
2023/01/25 06:50:29;;;;;;;80.50;32.27;;;;;;;-0.55;97.22;103405.75;5020823;28;20385;-92
2023/01/25 06:53:05;;;;;;;77.95;31.40;;;;;;;-0.56;97.45;103391.59;5020912;28;20022;-90
2023/01/25 06:55:36;;;;;;;86.53;32.85;;;;;;;-0.50;97.70;103397.53;5019583;28;20030;-86
2023/01/25 06:58:10;;;;;;;78.90;30.98;;;;;;;-0.48;97.70;103401.00;5020581;28;20386;-87
2023/01/25 07:00:35;;;;;;;81.55;32.80;;;;;;;-0.50;97.33;103398.41;5019853;28;20037;-86
2023/01/25 07:03:01;;;;;;;79.33;31.90;;;;;;;-0.56;97.58;103394.25;5019719;28;20214;-87
2023/01/25 07:05:32;;;;;;;81.77;32.83;;;;;;;-0.64;97.61;103392.91;5019692;28;20080;-86
2023/01/25 07:08:00;;;;;;;79.07;30.58;;;;;;;-0.68;97.42;103402.88;5019654;28;20474;-87
2023/01/25 07:10:28;;;;;;;77.75;30.98;;;;;;;-0.73;97.75;103396.91;5019101;28;20116;-87
2023/01/25 07:12:56;;;;;;;76.18;30.35;;;;;;;-0.74;97.80;103396.06;5037373;28;20473;-87
2023/01/25 07:15:22;;;;;;;79.17;32.07;;;;;;;-0.77;98.40;103400.66;5019366;28;20033;-87
2023/01/25 07:17:50;;;;;;;80.75;31.45;;;;;;;-0.74;97.93;103395.19;5021445;28;20284;-88
2023/01/25 07:20:21;;;;;;;79.57;31.85;;;;;;;-0.71;98.53;103400.34;5018726;28;20053;-87
2023/01/25 07:22:52;;;;;;;82.13;31.52;;;;;;;-0.69;98.52;103394.94;5019386;28;20462;-88
2023/01/25 07:25:20;;;;;;;75.38;30.80;;;;;;;-0.68;98.23;103399.34;5019190;28;20082;-88
2023/01/25 07:30:43;;;;;;;80.40;31.23;;;;;;;-0.62;98.50;103399.91;5038528;28;20776;-86
2023/01/25 07:33:09;;;;;;;81.80;32.50;;;;;;;-0.63;98.25;103389.31;5037018;28;20044;-87
2023/01/25 07:35:35;;;;;;;76.22;30.80;;;;;;;-0.62;98.51;103386.56;5018980;28;20065;-87
2023/01/25 07:38:10;;;;;;;78.97;30.17;;;;;;;-0.66;98.57;103387.66;5018386;28;20063;-87
2023/01/25 07:40:39;;;;;;;77.10;30.60;;;;;;;-0.72;98.13;103385.31;5002794;28;20029;-86
2023/01/25 07:43:15;;;;;;;84.05;32.53;;;;;;;-0.75;98.26;103389.00;5036463;28;20026;-86
2023/01/25 07:45:50;;;;;;;;;;;;;;;;;;;;;
2023/01/25 07:48:20;;;;;;;85.97;32.90;;;;;;;-0.85;98.62;103376.22;5037046;28;20034;-87
2023/01/25 07:53:48;;;;;;;78.75;30.42;;;;;;;-0.90;99.54;103382.66;5022257;28;20322;-87
2023/01/25 07:56:32;;;;;;;83.60;31.48;;;;;;;-0.90;99.53;103379.09;5018363;28;20052;-87
2023/01/25 07:59:02;;;;;;;81.20;31.52;;;;;;;-0.89;99.74;103378.16;5018274;28;20117;-86
2023/01/25 08:01:39;;;;;;;82.55;32.05;;;;;;;-0.92;99.49;103378.31;5036648;28;20025;-86
2023/01/25 08:04:13;;;;;;;85.70;33.30;;;;;;;-0.94;99.81;103375.75;5036146;28;20553;-88
2023/01/25 08:06:45;;;;;;;82.63;32.13;;;;;;;-0.86;99.55;103379.81;5019683;28;20279;-87
2023/01/25 08:09:27;;;;;;;82.15;31.58;;;;;;;-0.82;99.26;103381.41;5019620;28;20088;-87
2023/01/25 08:11:57;;;;;;;83.25;31.17;;;;;;;-0.79;99.50;103376.75;5018707;28;20029;-87
2023/01/25 08:14:41;;;;;;;84.70;32.88;;;;;;;-0.74;98.73;103377.41;5022111;28;20095;-87
2023/01/25 08:17:09;;;;;;;77.03;30.07;;;;;;;-0.80;98.41;103371.50;5008913;28;20040;-87
2023/01/25 08:19:35;;;;;;;77.90;30.77;;;;;;;-0.93;98.46;103369.47;5024200;28;20295;-86
2023/01/25 08:22:08;;;;;;;83.30;31.45;;;;;;;-0.95;99.10;103371.34;5025617;28;20054;-87
2023/01/25 08:24:39;;;;;;;87.43;33.07;;;;;;;-0.95;99.42;103379.34;5028514;28;20068;-87
2023/01/25 08:27:04;;;;;;;82.55;31.77;;;;;;;-0.94;99.48;103373.06;5044582;28;20272;-87
2023/01/25 08:29:33;;;;;;;85.95;33.97;;;;;;;-0.91;99.25;103367.59;5037014;28;20484;-87
2023/01/25 08:31:59;;;;;;;79.10;31.17;;;;;;;-0.89;98.74;103370.16;5018144;28;20030;-87
2023/01/25 08:34:24;;;;;;;82.45;30.38;;;;;;;-0.86;98.47;103362.00;5038125;28;20029;-87
2023/01/25 08:36:52;;;;;;;83.40;31.27;;;;;;;-0.80;98.62;103363.50;5017784;28;20071;-87
2023/01/25 08:39:20;;;;;;;77.97;30.13;;;;;;;-0.77;98.73;103372.22;5035630;28;20128;-88
2023/01/25 08:41:45;;;;;;;79.75;29.67;;;;;;;-0.73;98.45;103356.94;5017353;28;20033;-88
2023/01/25 08:44:11;;;;;;;78.27;30.63;;;;;;;-0.60;98.62;103370.50;5001846;28;20052;-87
2023/01/25 08:46:39;;;;;;;79.63;30.35;;;;;;;-0.55;98.20;103352.44;5018149;28;20126;-88
2023/01/25 08:49:14;;;;;;;82.53;31.53;;;;;;;-0.56;97.88;103364.03;5017177;28;20111;-88
2023/01/25 08:51:46;;;;;;;80.93;31.88;;;;;;;-0.63;97.47;103371.50;5017509;28;20496;-86
2023/01/25 08:54:17;;;;;;;76.80;30.42;;;;;;;-0.65;97.67;103365.41;5035141;28;20025;-87
2023/01/25 08:56:47;;;;;;;79.82;31.13;;;;;;;-0.58;98.17;103371.25;5035070;28;20116;-87
2023/01/25 08:59:15;;;;;;;80.80;31.42;;;;;;;-0.61;97.75;103358.94;5035669;28;20115;-86
2023/01/25 09:01:40;;;;;;;86.83;31.67;;;;;;;-0.61;97.46;103356.28;5017112;28;20429;-86
2023/01/25 09:04:06;;;;;;;83.15;32.35;;;;;;;-0.65;97.82;103352.06;5000900;28;20041;-85
2023/01/25 09:06:32;;;;;;;86.93;31.70;;;;;;;-0.62;97.71;103351.03;5017762;28;20477;-85
2023/01/25 09:09:00;;;;;;;79.43;31.20;;;;;;;-0.51;97.98;103345.16;5017015;28;20367;-86
2023/01/25 09:11:25;;;;;;;86.00;33.10;;;;;;;-0.42;97.52;103341.97;5017170;28;20041;-86
2023/01/25 09:13:53;;;;;;;84.57;32.80;;;;;;;-0.38;96.95;103347.06;5017637;28;20197;-86
2023/01/25 09:16:27;;;;;;;90.53;34.33;;;;;;;-0.43;96.37;103346.47;5001111;28;20481;-86
2023/01/25 09:18:58;;;;;;;89.88;33.60;;;;;;;-0.53;97.27;103337.22;5017798;28;20450;-86
2023/01/25 09:21:23;;;;;;;87.57;32.72;;;;;;;-0.56;97.53;103343.56;5016823;28;20045;-85
2023/01/25 09:23:54;;;;;;;83.43;31.67;;;;;;;-0.48;97.38;103335.16;5034191;28;20371;-85
2023/01/25 09:26:20;;;;;;;85.97;31.48;;;;;;;-0.39;96.85;103328.47;5017455;28;20059;-86
2023/01/25 09:28:52;;;;;;;89.03;34.33;;;;;;;-0.34;96.63;103337.06;5016929;28;20466;-85
2023/01/25 09:31:20;;;;;;;83.35;31.00;;;;;;;-0.41;96.77;103336.56;5035235;28;20037;-86
2023/01/25 09:33:47;;;;;;;88.05;32.33;;;;;;;-0.42;96.79;103331.31;5034602;28;20068;-85
2023/01/25 09:36:14;;;;;;;83.57;31.80;;;;;;;-0.48;96.14;103328.97;5034235;28;20061;-85
2023/01/25 09:38:39;;;;;;;85.55;32.25;;;;;;;-0.50;96.44;103338.84;5016232;28;20082;-86
2023/01/25 09:41:34;;;;;;;85.83;32.20;;;;;;;-0.48;96.49;103340.50;5034014;28;20025;-85
2023/01/25 09:44:28;;;;;;;81.68;30.75;;;;;;;-0.48;96.89;103339.66;5016929;28;20033;-86
2023/01/25 09:47:15;;;;;;;79.15;30.65;;;;;;;-0.46;96.69;103335.94;5034214;28;20021;-85
2023/01/25 09:49:53;;;;;;;85.13;31.33;;;;;;;-0.39;96.54;103332.00;5016197;28;20128;-85
2023/01/25 09:52:49;;;;;;;87.40;32.13;;;;;;;-0.36;96.26;103334.50;5016347;28;20053;-85
2023/01/25 09:55:17;;;;;;;85.90;32.40;;;;;;;-0.38;96.25;103322.22;5034154;28;20032;-85
2023/01/25 09:57:45;;;;;;;89.15;33.88;;;;;;;-0.42;96.31;103325.97;5034175;28;20021;-86
2023/01/25 10:00:22;;;;;;;88.63;33.28;;;;;;;-0.41;96.78;103330.38;5016637;28;20436;-86
2023/01/25 10:02:56;;;;;;;94.23;33.57;;;;;;;-0.39;96.22;103339.16;5016929;28;20506;-86
2023/01/25 10:05:27;;;;;;;91.60;34.35;;;;;;;-0.35;95.96;103340.72;5016338;28;20171;-85
2023/01/25 10:08:07;;;;;;;85.45;33.13;;;;;;;-0.25;96.43;103335.72;5033686;28;20362;-85
2023/01/25 10:10:47;;;;;;;92.45;32.80;;;;;;;-0.20;96.04;103328.34;5015811;28;20032;-85
2023/01/25 10:13:21;;;;;;;86.93;32.78;;;;;;;-0.11;95.78;103325.16;5016155;28;20063;-86
2023/01/25 10:15:54;;;;;;;92.63;34.37;;;;;;;-0.10;95.66;103316.22;5016766;28;20108;-86
2023/01/25 10:18:40;;;;;;;91.82;32.50;;;;;;;-0.16;95.31;103311.22;5033491;28;20104;-86
2023/01/25 10:21:11;;;;;;;91.45;33.50;;;;;;;-0.21;94.96;103310.59;5015913;28;20081;-87
2023/01/25 10:24:42;;;;;;;92.85;33.53;;;;;;;-0.24;95.51;103300.94;5015891;28;20037;-87
2023/01/25 10:27:55;;;;;;;87.45;31.77;;;;;;;-0.25;95.23;103317.94;4956611;28;20078;-86
2023/01/25 10:30:56;;;;;;;86.33;31.80;;;;;;;-0.29;95.41;103311.03;4955909;28;20038;-87
2023/01/25 10:33:22;;;;;;;87.78;32.03;;;;;;;-0.33;95.18;103303.28;5005475;28;20116;-88
2023/01/25 10:35:48;;;;;;;82.05;30.55;;;;;;;-0.45;95.34;103292.31;5015728;28;20056;-87
2023/01/25 10:38:18;;;;;;;89.70;33.60;;;;;;;-0.50;95.76;103299.72;5015989;28;20116;-87
2023/01/25 10:41:03;;;;;;;89.07;33.28;;;;;;;-0.48;95.84;103289.81;5016517;28;20084;-87
2023/01/25 10:43:31;;;;;;;92.25;34.10;;;;;;;-0.48;95.96;103283.63;5033231;28;20041;-87
2023/01/25 10:45:56;;;;;;;89.30;32.70;;;;;;;-0.48;95.39;103280.97;5015523;28;20026;-87
2023/01/25 10:48:28;;;;;;;85.17;33.17;;;;;;;-0.48;96.10;103263.16;5015547;28;20030;-86
2023/01/25 10:50:56;;;;;;;83.47;30.13;;;;;;;-0.44;96.12;103262.03;5033529;28;20025;-87
2023/01/25 10:53:29;;;;;;;89.97;32.88;;;;;;;-0.40;96.19;103250.25;5015464;28;20528;-87
2023/01/25 10:56:02;;;;;;;83.05;31.65;;;;;;;-0.28;96.45;103254.06;5033764;28;20104;-88
2023/01/25 10:58:59;;;;;;;;;;;;;;;;;;;;;
2023/01/25 11:01:30;;;;;;;83.70;32.08;;;;;;;-0.12;95.16;103240.69;5033576;28;20029;-87
2023/01/25 11:04:04;;;;;;;86.68;33.22;;;;;;;-0.17;94.66;103232.09;5015760;28;20095;-91
2023/01/25 11:06:33;;;;;;;83.88;30.30;;;;;;;-0.11;95.36;103237.09;5015421;28;20034;-88
2023/01/25 11:09:23;;;;;;;90.03;32.67;;;;;;;-0.08;94.20;103228.06;5015616;28;20056;-87
2023/01/25 11:12:18;;;;;;;86.77;31.50;;;;;;;-0.27;94.49;103221.06;5014664;28;20045;-88
2023/01/25 11:14:48;;;;;;;89.35;32.33;;;;;;;-0.44;94.82;103213.19;5018714;28;20022;-88
2023/01/25 11:17:32;;;;;;;87.57;33.45;;;;;;;-0.42;95.75;103211.28;5032861;28;20045;-87
2023/01/25 11:20:06;;;;;;;90.63;31.23;;;;;;;-0.40;95.33;103206.69;5015802;28;20033;-88
2023/01/25 11:22:44;;;;;;;;;;;;;;;;;;;;;
2023/01/25 11:25:32;;;;;;;89.13;32.87;;;;;;;-0.43;95.38;103198.88;5017855;28;20043;-87
2023/01/25 11:28:21;;;;;;;87.85;32.42;;;;;;;-0.56;95.32;103202.22;5015749;28;20030;-87
2023/01/25 11:30:50;;;;;;;87.07;32.10;;;;;;;-0.55;95.71;103198.63;5033491;28;20029;-87
2023/01/25 11:33:20;;;;;;;90.35;32.42;;;;;;;-0.47;96.10;103178.66;5017373;28;20111;-87
2023/01/25 11:36:07;;;;;;;80.75;29.05;;;;;;;-0.34;95.22;103176.16;5020426;28;20033;-87
2023/01/25 11:38:33;;;;;;;96.30;33.03;;;;;;;-0.37;95.09;103164.72;5022922;28;20043;-89
2023/01/25 11:41:13;;;;;;;90.13;32.40;;;;;;;-0.44;94.69;103166.00;5043107;28;20029;-87
2023/01/25 11:43:59;;;;;;;89.55;32.47;;;;;;;-0.58;95.27;103164.09;5021593;28;20036;-87
2023/01/25 11:46:50;;;;;;;85.55;32.40;;;;;;;-0.59;95.29;103150.84;5019970;28;20042;-87
2023/01/25 11:49:45;;;;;;;83.68;30.70;;;;;;;-0.65;95.23;103145.88;5018583;28;20473;-86